Time;durP1;ratioP1;P1;durP2;ratioP2;P2;SDS_P1;SDS_P2;PMS_P1;PMS_P2;Temp;Humidity;BMP_temperature;BMP_pressure;BME280_temperature;BME280_humidity;BME280_pressure;Samples;Min_cycle;Max_cycle;Signal;HPM_P1;HPM_P2
2021/12/22 00:01:28;;;;;;;23.90;18.17;;;-3.90;99.90;;;-3.33;89.58;98796.19;5218406;28;20217;-64
2021/12/22 00:04:01;;;;;;;19.37;16.73;;;-3.80;99.90;;;-3.26;89.90;98786.28;5220449;28;20193;-64
2021/12/22 00:06:36;;;;;;;17.67;15.77;;;-3.90;99.90;;;-3.27;89.15;98776.97;5221663;28;20215;-63
2021/12/22 00:09:10;;;;;;;18.23;15.40;;;-4.00;99.90;;;-3.29;87.88;98777.47;5224314;28;20215;-65
2021/12/22 00:11:44;;;;;;;15.73;14.00;;;-4.10;99.90;;;-3.23;86.81;98773.25;5220648;28;20202;-63
2021/12/22 00:14:18;;;;;;;18.70;15.40;;;-4.10;99.90;;;-3.25;87.15;98772.16;5223074;28;20289;-63
2021/12/22 00:16:51;;;;;;;16.17;14.47;;;-4.10;99.90;;;-3.39;86.21;98775.44;5220973;28;20204;-64
2021/12/22 00:19:24;;;;;;;15.00;13.40;;;-4.20;99.90;;;-3.41;86.70;98780.22;5219056;28;20228;-65
2021/12/22 00:21:57;;;;;;;16.00;14.10;;;-4.20;99.90;;;-3.56;87.32;98767.44;5221355;28;21973;-64
2021/12/22 00:24:34;;;;;;;17.87;15.47;;;-4.20;99.90;;;-3.59;87.29;98767.06;5223195;28;20307;-64
2021/12/22 00:27:08;;;;;;;16.53;14.93;;;-4.20;99.90;;;-3.56;87.02;98768.34;5222716;28;20200;-64
2021/12/22 00:29:42;;;;;;;16.07;14.43;;;-4.30;99.90;;;-3.55;86.87;98761.72;5221843;28;20218;-63
2021/12/22 00:32:17;;;;;;;15.60;13.97;;;-4.30;99.90;;;-3.62;87.05;98760.97;5223133;28;20240;-64
2021/12/22 00:34:54;;;;;;;16.40;14.70;;;-4.30;99.90;;;-3.66;86.17;98756.31;5220286;28;20208;-64
2021/12/22 00:37:30;;;;;;;21.37;17.90;;;-4.30;99.90;;;-3.73;87.01;98757.81;5222010;28;20207;-64
2021/12/22 00:40:06;;;;;;;20.80;18.13;;;-4.40;99.90;;;-3.79;86.81;98759.56;5222254;28;20207;-65
2021/12/22 00:42:39;;;;;;;19.57;17.57;;;-4.40;99.90;;;-3.86;87.24;98753.78;5221021;28;20225;-64
2021/12/22 00:45:12;;;;;;;21.70;18.67;;;-4.50;99.90;;;-3.83;88.25;98762.34;5220084;28;20212;-64
2021/12/22 00:47:46;;;;;;;21.37;18.67;;;-4.40;99.90;;;-3.76;88.08;98762.44;5221376;28;20207;-64
2021/12/22 00:50:19;;;;;;;22.60;18.70;;;-4.40;99.90;;;-3.72;88.25;98773.03;5221636;28;20201;-65
2021/12/22 00:52:52;;;;;;;17.47;15.67;;;-4.30;99.90;;;-3.72;88.36;98768.03;5221550;28;20195;-65
2021/12/22 00:55:27;;;;;;;19.67;16.50;;;-4.30;99.90;;;-3.73;88.09;98776.19;5221897;28;20198;-63
2021/12/22 00:58:00;;;;;;;17.77;15.87;;;-4.40;99.90;;;-3.74;87.27;98781.03;5222150;28;20310;-65
2021/12/22 01:00:34;;;;;;;18.37;15.37;;;-4.40;99.90;;;-3.73;87.74;98783.69;5222679;28;20199;-63
2021/12/22 01:03:08;;;;;;;17.37;14.73;;;-4.50;99.90;;;-3.81;86.51;98779.31;5223068;28;20216;-63
2021/12/22 01:05:41;;;;;;;15.43;13.87;;;-4.60;99.90;;;-3.83;87.23;98783.25;5219827;28;20280;-63
2021/12/22 01:08:15;;;;;;;14.70;13.30;;;-4.50;99.90;;;-3.98;86.50;98783.78;5218254;28;20228;-64
2021/12/22 01:10:50;;;;;;;15.33;13.60;;;-4.70;99.90;;;-4.06;86.94;98785.34;5219901;28;20216;-64
2021/12/22 01:13:23;;;;;;;15.67;13.77;;;-4.70;99.90;;;-4.12;87.57;98777.97;5221676;28;20687;-63
2021/12/22 01:15:56;;;;;;;15.63;14.10;;;-4.70;99.90;;;-4.09;87.01;98788.34;5220941;28;20658;-65
2021/12/22 01:18:32;;;;;;;16.23;14.53;;;-4.70;99.90;;;-4.09;87.22;98783.34;5222026;28;20613;-65
2021/12/22 01:21:13;;;;;;;16.23;14.50;;;-4.70;99.90;;;-4.03;87.68;98792.28;5222848;28;20295;-65
2021/12/22 01:24:00;;;;;;;17.90;15.87;;;-4.70;99.90;;;-4.01;86.75;98783.41;5222159;28;20227;-64
2021/12/22 01:26:40;;;;;;;18.73;15.47;;;-4.70;99.90;;;-4.05;87.62;98783.72;5222037;28;20201;-64
2021/12/22 01:29:14;;;;;;;15.87;14.17;;;-4.60;99.90;;;-4.05;87.78;98782.13;5222258;28;20220;-64
2021/12/22 01:31:48;;;;;;;16.63;14.83;;;-4.60;99.90;;;-4.09;87.54;98780.84;5222517;28;20207;-64
2021/12/22 01:34:21;;;;;;;19.77;16.40;;;-4.60;99.90;;;-4.08;87.93;98789.22;5222057;28;20670;-64
2021/12/22 01:36:54;;;;;;;19.00;16.97;;;-4.60;99.90;;;-4.01;87.74;98798.38;5222852;28;20193;-64
2021/12/22 01:39:27;;;;;;;18.53;16.53;;;-4.60;99.90;;;-3.99;88.34;98796.97;5222170;28;20233;-62
2021/12/22 01:42:02;;;;;;;19.17;17.20;;;-4.50;99.90;;;-4.10;88.18;98794.00;5222754;28;20231;-64
2021/12/22 01:44:49;;;;;;;19.83;16.80;;;-4.60;99.90;;;-4.07;87.84;98801.88;5220431;28;20201;-64
2021/12/22 01:50:17;;;;;;;20.33;17.17;;;-4.70;99.90;;;-4.07;88.41;98806.88;5224440;28;20208;-63
2021/12/22 01:52:50;;;;;;;19.83;17.50;;;-4.70;99.90;;;-4.11;87.69;98804.69;5223638;28;20292;-64
2021/12/22 01:55:33;;;;;;;21.70;18.17;;;-4.70;99.90;;;-4.13;88.20;98797.72;5222303;28;20197;-63
2021/12/22 01:58:12;;;;;;;25.77;19.20;;;-4.70;99.90;;;-4.10;87.67;98806.47;5219225;28;20217;-64
2021/12/22 02:00:45;;;;;;;25.47;18.43;;;-4.70;99.90;;;-4.14;87.99;98799.31;5217510;28;20204;-64
2021/12/22 02:03:19;;;;;;;22.90;18.43;;;-4.70;99.90;;;-4.16;87.89;98803.22;5216434;28;20586;-63
2021/12/22 02:05:52;;;;;;;25.43;18.60;;;-4.70;99.90;;;-4.13;88.40;98795.22;5220127;28;20201;-64
2021/12/22 02:08:25;;;;;;;22.07;17.43;;;-4.60;99.90;;;-4.14;88.02;98799.31;5220183;28;20217;-64
2021/12/22 02:10:58;;;;;;;22.10;17.27;;;-4.70;99.90;;;-4.12;87.63;98799.50;5220361;28;20197;-64
2021/12/22 02:13:37;;;;;;;23.67;18.63;;;-4.80;99.90;;;-4.16;87.63;98795.72;5220894;28;20204;-61
2021/12/22 02:16:14;;;;;;;20.77;16.97;;;-4.80;99.90;;;-4.17;87.74;98795.53;5221646;28;20681;-62
2021/12/22 02:18:52;;;;;;;21.17;18.07;;;-4.70;99.90;;;-4.24;87.75;98790.44;5221386;28;20255;-61
2021/12/22 02:21:30;;;;;;;22.13;17.73;;;-4.80;99.90;;;-4.25;87.72;98788.66;5226711;28;20600;-61
2021/12/22 02:24:04;;;;;;;19.73;16.53;;;-4.80;99.90;;;-4.28;88.04;98786.66;5224808;28;20211;-62
2021/12/22 02:26:42;;;;;;;22.37;17.27;;;-4.80;99.90;;;-4.30;87.77;98785.56;5225086;28;20196;-62
2021/12/22 02:29:21;;;;;;;21.67;17.67;;;-4.90;99.90;;;-4.30;88.21;98780.56;5225033;28;20698;-62
2021/12/22 02:32:04;;;;;;;23.30;17.40;;;-4.90;99.90;;;-4.31;87.72;98783.78;5224103;28;20662;-62
2021/12/22 02:34:42;;;;;;;25.20;19.40;;;-4.90;99.90;;;-4.34;87.97;98784.28;5222613;28;20687;-62
2021/12/22 02:37:19;;;;;;;22.57;19.17;;;-4.90;99.90;;;-4.32;88.19;98782.91;5222837;28;20200;-62
2021/12/22 02:39:59;;;;;;;24.33;18.90;;;-4.80;99.90;;;-4.25;88.34;98773.69;5223787;28;20225;-61
2021/12/22 02:42:34;;;;;;;25.93;18.47;;;-4.80;99.90;;;-4.27;88.45;98770.09;5223638;28;20221;-61
2021/12/22 02:45:08;;;;;;;21.30;18.87;;;-4.80;99.90;;;-4.29;88.01;98777.41;5223355;28;20198;-64
2021/12/22 02:47:42;;;;;;;24.53;18.53;;;-4.80;99.90;;;-4.27;87.80;98785.06;5223710;28;20583;-63
2021/12/22 02:50:17;;;;;;;21.10;17.37;;;-4.90;99.90;;;-4.27;88.69;98782.56;5225164;28;20198;-63
2021/12/22 02:53:05;;;;;;;23.80;18.70;;;-4.80;99.90;;;-4.28;87.78;98784.19;5221202;28;20195;-63
2021/12/22 02:55:48;;;;;;;23.73;19.13;;;-4.90;99.90;;;-4.31;87.74;98784.69;5220347;28;20201;-63
2021/12/22 02:58:32;;;;;;;21.40;17.70;;;-4.90;99.90;;;-4.34;87.88;98793.38;5218725;28;20229;-63
2021/12/22 03:01:22;;;;;;;20.87;18.10;;;-4.90;99.90;;;-4.33;88.17;98795.16;5226111;28;20197;-63
2021/12/22 03:03:59;;;;;;;25.00;19.10;;;-4.90;99.90;;;-4.31;88.50;98796.25;5221269;28;20211;-63
2021/12/22 03:06:33;;;;;;;20.10;17.13;;;-4.80;99.90;;;-4.27;88.15;98795.94;5224035;28;20201;-63
2021/12/22 03:09:18;;;;;;;21.87;17.60;;;-4.80;99.90;;;-4.23;87.51;98785.66;5223265;28;20592;-64
2021/12/22 03:11:53;;;;;;;19.30;17.20;;;-4.80;99.90;;;-4.24;87.91;98797.94;5220284;28;20259;-63
2021/12/22 03:14:27;;;;;;;21.00;17.30;;;-4.90;99.90;;;-4.33;86.94;98788.56;5224377;28;20205;-63
2021/12/22 03:17:01;;;;;;;21.67;17.07;;;-4.90;99.90;;;-4.35;87.57;98796.56;5221658;28;20561;-62
2021/12/22 03:19:37;;;;;;;18.50;16.53;;;-4.90;99.90;;;-4.33;87.00;98795.16;5224440;28;20221;-63
2021/12/22 03:22:11;;;;;;;22.60;17.40;;;-5.00;99.90;;;-4.36;86.91;98792.28;5225128;28;20203;-63
2021/12/22 03:24:47;;;;;;;20.50;16.50;;;-4.90;99.90;;;-4.41;86.16;98790.78;5223051;28;20220;-63
2021/12/22 03:27:22;;;;;;;19.40;17.40;;;-5.00;99.90;;;-4.57;85.91;98787.91;5224894;28;20587;-63
2021/12/22 03:29:55;;;;;;;18.90;16.03;;;-5.10;99.90;;;-4.57;86.71;98785.44;5222345;28;20307;-64
2021/12/22 03:32:28;;;;;;;20.13;16.33;;;-5.10;99.90;;;-4.60;87.22;98785.91;5224762;28;20302;-62
2021/12/22 03:35:01;;;;;;;20.60;16.60;;;-5.20;99.90;;;-4.63;87.07;98792.13;5223833;28;20563;-65
2021/12/22 03:37:34;;;;;;;19.37;17.07;;;-5.20;99.90;;;-4.61;87.46;98779.13;5224653;28;20215;-65
2021/12/22 03:40:10;;;;;;;19.13;15.83;;;-5.10;99.90;;;-4.59;86.77;98769.34;5224228;28;20220;-62
2021/12/22 03:42:43;;;;;;;19.07;14.77;;;-5.20;99.90;;;-4.60;87.11;98783.44;5224073;28;20209;-65
2021/12/22 03:45:17;;;;;;;18.57;16.43;;;-5.10;99.90;;;-4.60;86.51;98778.44;5223688;28;20664;-63
2021/12/22 03:47:51;;;;;;;18.43;16.33;;;-5.20;99.90;;;-4.74;87.31;98780.75;5222865;28;20224;-63
2021/12/22 03:50:24;;;;;;;21.03;16.37;;;-5.30;99.90;;;-4.71;87.36;98788.63;5222053;28;20202;-63
2021/12/22 03:52:57;;;;;;;19.27;16.40;;;-5.20;99.90;;;-4.77;87.28;98788.72;5225954;28;20221;-63
2021/12/22 03:55:32;;;;;;;22.37;16.93;;;-5.30;99.90;;;-4.79;86.51;98790.09;5226294;28;20205;-63
2021/12/22 03:58:05;;;;;;;20.03;17.17;;;-5.30;99.90;;;-4.90;86.75;98791.91;5221588;28;20217;-65
2021/12/22 04:00:40;;;;;;;20.13;16.53;;;-5.40;99.90;;;-4.87;87.36;98795.69;5224108;28;20197;-63
2021/12/22 04:03:18;;;;;;;17.83;15.90;;;-5.40;99.90;;;-4.81;86.91;98790.59;5222839;28;20248;-62
2021/12/22 04:05:51;;;;;;;18.07;15.63;;;-5.40;99.90;;;-4.80;86.95;98792.41;5220023;28;20193;-62
2021/12/22 04:08:24;;;;;;;18.23;15.23;;;-5.40;99.90;;;-4.81;87.79;98791.53;5222576;28;20224;-62
2021/12/22 04:10:59;;;;;;;21.43;16.47;;;-5.30;99.90;;;-4.82;87.16;98786.31;5221982;28;20201;-63
2021/12/22 04:13:32;;;;;;;19.17;16.37;;;-5.40;99.90;;;-4.84;87.56;98800.19;5223233;28;20200;-59
2021/12/22 04:16:05;;;;;;;21.60;17.10;;;-5.40;99.90;;;-4.85;87.60;98798.41;5221537;28;20205;-63
2021/12/22 04:18:39;;;;;;;20.27;16.27;;;-5.30;99.90;;;-4.80;88.47;98797.41;5221609;28;20249;-63
2021/12/22 04:21:12;;;;;;;17.27;15.37;;;-5.30;99.90;;;-4.82;87.76;98803.78;5221654;28;20205;-63
2021/12/22 04:23:45;;;;;;;18.40;15.53;;;-5.30;99.90;;;-4.79;87.35;98799.19;5221923;28;20221;-63
2021/12/22 04:26:20;;;;;;;19.60;15.60;;;-5.30;99.90;;;-4.80;86.97;98798.28;5223313;28;20401;-64
2021/12/22 04:28:53;;;;;;;17.40;15.17;;;-5.40;99.90;;;-4.73;86.63;98794.09;5222732;28;20703;-63
2021/12/22 04:31:26;;;;;;;17.93;15.43;;;-5.40;99.90;;;-4.73;86.76;98802.47;5219618;28;20209;-64
2021/12/22 04:34:01;;;;;;;16.90;15.17;;;-5.40;99.90;;;-4.82;86.86;98804.66;5221458;28;20199;-64
2021/12/22 04:36:35;;;;;;;16.50;14.50;;;-5.40;99.90;;;-4.80;86.55;98798.28;5222929;28;20192;-64
2021/12/22 04:39:10;;;;;;;20.33;15.47;;;-5.40;99.90;;;-4.72;85.70;98800.88;5222037;28;20225;-64
2021/12/22 04:41:45;;;;;;;17.43;15.47;;;-5.50;99.90;;;-4.79;85.97;98790.09;5222168;28;20201;-63
2021/12/22 04:44:18;;;;;;;16.73;14.23;;;-5.40;99.90;;;-4.83;85.94;98790.41;5222122;28;20216;-63
2021/12/22 04:46:51;;;;;;;17.60;15.73;;;-5.40;99.90;;;-4.85;86.12;98785.94;5221432;28;20197;-64
2021/12/22 04:49:24;;;;;;;18.30;15.37;;;-5.50;99.90;;;-4.88;85.72;98785.53;5224044;28;20227;-65
2021/12/22 04:51:59;;;;;;;18.17;16.20;;;-5.40;99.90;;;-4.86;85.76;98782.53;5221315;28;20211;-64
2021/12/22 04:54:42;;;;;;;19.23;15.90;;;-5.50;99.90;;;-4.79;85.90;98791.72;5221927;28;20197;-64
2021/12/22 04:57:16;;;;;;;19.33;17.27;;;-5.40;99.90;;;-4.82;86.57;98788.81;5220823;28;20203;-63
2021/12/22 04:59:49;;;;;;;21.30;16.73;;;-5.30;99.90;;;-4.87;86.10;98792.28;5223167;28;20216;-64
2021/12/22 05:02:22;;;;;;;19.17;16.40;;;-5.40;99.90;;;-4.90;86.37;98794.41;5221297;28;20681;-64
2021/12/22 05:04:55;;;;;;;20.00;16.67;;;-5.40;99.90;;;-4.89;86.46;98796.19;5220954;28;20271;-63
2021/12/22 05:07:28;;;;;;;22.67;17.37;;;-5.40;99.90;;;-4.86;86.81;98791.63;5220794;28;20193;-64
2021/12/22 05:10:04;;;;;;;19.73;17.53;;;-5.40;99.90;;;-4.83;86.40;98787.94;5221076;28;20196;-64
2021/12/22 05:12:38;;;;;;;18.33;15.67;;;-5.40;99.90;;;-4.73;86.81;98794.09;5222542;28;20595;-64
2021/12/22 05:15:11;;;;;;;22.93;18.20;;;-5.30;99.90;;;-4.74;86.13;98787.34;5221846;28;20585;-64
2021/12/22 05:18:14;;;;;;;19.60;16.63;;;-5.30;99.90;;;-4.70;86.73;98785.41;5221087;28;20207;-64
2021/12/22 05:20:47;;;;;;;20.20;17.20;;;-5.20;99.90;;;-4.69;85.92;98772.28;5222254;28;20594;-64
2021/12/22 05:23:20;;;;;;;20.10;16.07;;;-5.30;99.90;;;-4.74;85.98;98778.25;5223382;28;20193;-64
2021/12/22 05:25:53;;;;;;;20.47;17.47;;;-5.30;99.90;;;-4.83;86.22;98787.03;5221790;28;20331;-64
2021/12/22 05:28:28;;;;;;;20.07;16.87;;;-5.40;99.90;;;-4.82;86.63;98781.34;5221786;28;20223;-64
2021/12/22 05:31:01;;;;;;;17.83;15.77;;;-5.40;99.90;;;-4.89;86.50;98774.66;5220670;28;20211;-62
2021/12/22 05:33:34;;;;;;;18.43;16.07;;;-5.40;99.90;;;-4.90;86.31;98775.34;5221237;28;20205;-63
2021/12/22 05:36:07;;;;;;;19.77;16.40;;;-5.40;99.90;;;-5.04;87.27;98778.53;5221819;28;20514;-64
2021/12/22 05:38:40;;;;;;;22.03;17.57;;;-5.50;99.90;;;-4.96;86.51;98773.66;5220892;28;20286;-64
2021/12/22 05:41:14;;;;;;;19.37;17.20;;;-5.50;99.90;;;-5.03;87.28;98770.38;5220216;28;20213;-64
2021/12/22 05:43:48;;;;;;;18.13;16.23;;;-5.50;99.90;;;-5.01;86.81;98778.03;5220536;28;20202;-64
2021/12/22 05:46:21;;;;;;;22.47;16.60;;;-5.50;99.90;;;-4.97;87.02;98779.34;5221153;28;20197;-63
2021/12/22 05:48:54;;;;;;;20.57;16.30;;;-5.60;99.90;;;-5.05;86.99;98784.22;5219772;28;20216;-64
2021/12/22 05:51:30;;;;;;;19.20;16.20;;;-5.60;99.90;;;-5.02;86.76;98779.63;5222103;28;20693;-64
2021/12/22 05:54:04;;;;;;;21.70;18.43;;;-5.60;99.90;;;-5.02;86.09;98779.63;5223109;28;20197;-64
2021/12/22 05:56:37;;;;;;;20.10;16.40;;;-5.60;99.90;;;-5.02;86.00;98773.75;5226003;28;20197;-64
2021/12/22 05:59:12;;;;;;;21.87;17.17;;;-5.60;99.90;;;-5.08;86.25;98778.84;5226689;28;20229;-64
2021/12/22 06:01:45;;;;;;;20.47;17.60;;;-5.60;99.90;;;-5.08;86.78;98781.31;5225197;28;20200;-63
2021/12/22 06:04:18;;;;;;;21.00;17.20;;;-5.50;99.90;;;-5.01;86.42;98780.53;5226746;28;20608;-63
2021/12/22 06:06:51;;;;;;;22.80;18.27;;;-5.50;99.90;;;-4.94;87.78;98777.25;5224853;28;20219;-62
2021/12/22 06:09:24;;;;;;;21.10;17.23;;;-5.40;99.90;;;-4.95;87.72;98780.44;5225462;28;20688;-64
2021/12/22 06:11:57;;;;;;;22.33;18.70;;;-5.50;99.90;;;-4.94;87.52;98782.25;5224149;28;20573;-64
2021/12/22 06:14:32;;;;;;;19.90;16.37;;;-5.50;99.90;;;-4.96;87.25;98784.53;5227817;28;20213;-64
2021/12/22 06:17:05;;;;;;;21.77;17.07;;;-5.50;99.90;;;-4.97;86.90;98787.72;5224270;28;20207;-64
2021/12/22 06:19:38;;;;;;;25.13;19.37;;;-5.50;99.90;;;-4.89;87.28;98782.16;5226045;28;20217;-63
2021/12/22 06:22:11;;;;;;;20.80;16.90;;;-5.40;99.90;;;-4.86;87.60;98791.63;5223577;28;20552;-64
2021/12/22 06:24:44;;;;;;;23.73;18.67;;;-5.40;99.90;;;-4.85;87.94;98788.41;5223156;28;20236;-64
2021/12/22 06:27:17;;;;;;;22.23;18.60;;;-5.40;99.90;;;-4.82;86.77;98792.19;5223178;28;20201;-63
2021/12/22 06:29:52;;;;;;;21.60;18.80;;;-5.40;99.90;;;-4.84;86.95;98805.16;5223740;28;20588;-63
2021/12/22 06:32:25;;;;;;;22.57;17.37;;;-5.40;99.90;;;-4.78;87.49;98808.44;5223898;28;20200;-64
2021/12/22 06:34:58;;;;;;;23.73;17.83;;;-5.30;99.90;;;-4.78;86.90;98804.38;5223766;28;20204;-64
2021/12/22 06:37:31;;;;;;;24.03;19.03;;;-5.40;99.90;;;-4.73;86.46;98804.97;5222119;28;20215;-64
2021/12/22 06:40:07;;;;;;;20.03;17.93;;;-5.40;99.90;;;-4.76;86.27;98809.56;5222278;28;20204;-63
2021/12/22 06:42:41;;;;;;;21.60;17.63;;;-5.40;99.90;;;-4.69;85.32;98811.25;5223362;28;20462;-63
2021/12/22 06:45:16;;;;;;;22.57;19.10;;;-5.50;99.90;;;-4.81;84.86;98810.53;5223237;28;20563;-63
2021/12/22 06:47:50;;;;;;;22.57;17.43;;;-5.50;99.90;;;-4.89;84.98;98811.13;5220562;28;20695;-64
2021/12/22 06:50:23;;;;;;;22.77;18.37;;;-5.50;99.90;;;-4.96;85.79;98798.59;5223054;28;20194;-64
2021/12/22 06:52:56;;;;;;;22.50;17.63;;;-5.60;99.90;;;-5.04;84.66;98802.56;5222919;28;20206;-64
2021/12/22 06:55:29;;;;;;;23.63;18.10;;;-5.60;99.90;;;-5.24;84.75;98803.34;5224203;28;20565;-63
2021/12/22 06:58:02;;;;;;;22.77;18.73;;;-5.70;99.90;;;-5.16;86.33;98791.88;5223802;28;20579;-64
2021/12/22 07:00:37;;;;;;;24.43;17.80;;;-5.70;99.90;;;-5.21;86.08;98795.34;5219209;28;20212;-64
2021/12/22 07:03:10;;;;;;;22.23;18.50;;;-5.70;99.90;;;-5.15;85.95;98793.69;5224341;28;20215;-64
2021/12/22 07:05:43;;;;;;;20.43;17.57;;;-5.70;99.90;;;-5.05;86.17;98788.31;5219620;28;20700;-64
2021/12/22 07:08:17;;;;;;;22.53;17.73;;;-5.60;99.90;;;-5.01;86.45;98791.41;5219893;28;20220;-63
2021/12/22 07:10:50;;;;;;;23.50;18.53;;;-5.60;99.90;;;-5.07;86.60;98785.59;5223838;28;20686;-61
2021/12/22 07:13:23;;;;;;;25.07;20.30;;;-5.60;99.90;;;-5.03;87.02;98787.81;5222319;28;20211;-63
2021/12/22 07:15:58;;;;;;;24.43;19.50;;;-5.50;99.90;;;-4.90;86.86;98796.88;5222533;28;20198;-62
2021/12/22 07:18:32;;;;;;;23.93;19.83;;;-5.50;99.90;;;-4.89;85.84;98792.13;5221273;28;20221;-63
2021/12/22 07:21:05;;;;;;;21.13;18.47;;;-5.50;99.90;;;-4.90;86.30;98794.41;5222205;28;20288;-63
2021/12/22 07:23:38;;;;;;;20.10;17.67;;;-5.50;99.90;;;-4.89;84.89;98787.13;5220798;28;24137;-61
2021/12/22 07:26:13;;;;;;;21.83;18.13;;;-5.60;99.90;;;-4.91;85.07;98792.63;5220954;28;20225;-63
2021/12/22 07:28:49;;;;;;;23.50;17.80;;;-5.60;99.90;;;-4.93;85.16;98786.50;5222616;28;20221;-63
2021/12/22 07:31:23;;;;;;;21.70;18.23;;;-5.50;99.90;;;-4.88;85.04;98788.03;5221881;28;20206;-63
2021/12/22 07:34:02;;;;;;;26.83;20.30;;;-5.40;99.90;;;-4.87;85.83;98787.31;5220331;28;20204;-63
2021/12/22 07:36:47;;;;;;;25.67;19.07;;;-5.40;99.90;;;-4.85;85.70;98783.44;5220639;28;20186;-63
2021/12/22 07:39:20;;;;;;;23.50;18.67;;;-5.40;99.90;;;-4.84;86.39;98785.22;5219603;28;20235;-63
2021/12/22 07:41:53;;;;;;;27.63;20.37;;;-5.40;99.90;;;-4.84;86.37;98791.09;5223120;28;20653;-62
2021/12/22 07:44:26;;;;;;;23.73;18.67;;;-5.40;99.90;;;-4.74;86.52;98798.19;5222474;28;20679;-62
2021/12/22 07:47:00;;;;;;;22.33;18.93;;;-5.40;99.90;;;-4.74;86.13;98798.19;5223383;28;20221;-63
2021/12/22 07:49:33;;;;;;;22.20;18.40;;;-5.30;99.90;;;-4.72;85.46;98810.84;5223596;28;20276;-63
2021/12/22 07:52:07;;;;;;;24.60;18.13;;;-5.30;99.90;;;-4.69;85.57;98812.16;5220280;28;20208;-63
2021/12/22 07:54:40;;;;;;;23.70;18.87;;;-5.40;99.90;;;-4.60;84.01;98807.47;5223044;28;20232;-63
2021/12/22 07:57:13;;;;;;;24.80;19.00;;;-5.40;99.90;;;-4.55;83.26;98817.34;5220322;28;20201;-64
2021/12/22 07:59:47;;;;;;;21.17;18.40;;;-5.50;99.90;;;-4.55;83.53;98818.91;5221047;28;20220;-63
2021/12/22 08:02:21;;;;;;;24.37;20.20;;;-5.40;99.90;;;-4.51;83.39;98818.63;5226062;28;20205;-63
2021/12/22 08:04:54;;;;;;;25.30;19.93;;;-5.30;99.90;;;-4.36;83.78;98819.72;5218128;28;20228;-63
2021/12/22 08:07:27;;;;;;;22.60;19.73;;;-5.10;99.90;;;-4.32;83.63;98815.34;5221730;28;20230;-63
2021/12/22 08:10:00;;;;;;;22.33;18.67;;;-4.90;99.90;;;-4.16;83.37;98825.66;5220818;28;20200;-63
2021/12/22 08:12:33;;;;;;;28.47;21.60;;;-4.80;99.90;;;-3.99;82.83;98834.44;5223269;28;20597;-63
2021/12/22 08:15:08;;;;;;;30.80;23.73;;;-4.70;99.90;;;-3.87;82.70;98826.00;5220153;28;20228;-62
2021/12/22 08:17:43;;;;;;;30.63;22.47;;;-4.60;99.90;;;-3.76;83.66;98825.75;5218606;28;20210;-63
2021/12/22 08:20:16;;;;;;;28.13;22.30;;;-4.30;99.90;;;-3.60;82.66;98822.72;5222643;28;20193;-63
2021/12/22 08:22:49;;;;;;;28.03;23.53;;;-4.10;99.90;;;-3.47;82.03;98831.03;5217912;28;20198;-64
2021/12/22 08:25:23;;;;;;;26.00;22.10;;;-4.00;99.90;;;-3.32;82.33;98827.06;5223161;28;20197;-64
2021/12/22 08:27:56;;;;;;;30.23;22.50;;;-3.90;99.90;;;-3.27;82.24;98826.06;5215156;28;20236;-63
2021/12/22 08:30:29;;;;;;;23.80;21.23;;;-3.80;99.90;;;-3.12;82.18;98822.06;5219261;28;20194;-62
2021/12/22 08:33:09;;;;;;;26.70;21.33;;;-3.60;99.90;;;-3.00;82.69;98816.09;5222756;28;20232;-63
2021/12/22 08:41:23;;;;;;;26.20;20.97;;;-3.40;99.90;;;-2.73;81.41;98819.50;5217222;28;20211;-64
2021/12/22 08:44:00;;;;;;;26.40;22.50;;;-3.30;99.90;;;-2.65;79.35;98807.03;5221405;28;20669;-63
2021/12/22 08:46:35;;;;;;;24.93;20.80;;;-3.20;99.90;;;-2.58;79.26;98807.06;5221993;28;20324;-65
2021/12/22 08:49:11;;;;;;;25.17;20.07;;;-3.20;99.90;;;-2.51;79.96;98807.13;5219338;28;20220;-63
2021/12/22 08:51:44;;;;;;;27.23;21.80;;;-3.00;99.90;;;-2.38;81.27;98804.50;5221094;28;20205;-64
2021/12/22 08:54:18;;;;;;;26.43;21.43;;;-2.90;99.90;;;-2.19;81.17;98801.00;5217438;28;20203;-63
2021/12/22 08:56:52;;;;;;;26.63;21.07;;;-2.60;99.90;;;-2.11;80.86;98804.44;5219026;28;20203;-64
2021/12/22 08:59:26;;;;;;;28.53;21.60;;;-2.60;99.90;;;-2.00;79.44;98800.69;5219844;28;20225;-63
2021/12/22 09:01:59;;;;;;;28.73;21.17;;;-2.70;99.90;;;-2.06;78.83;98808.38;5219449;28;20212;-64
2021/12/22 09:04:34;;;;;;;29.23;22.13;;;-2.60;99.90;;;-2.01;80.78;98798.94;5219973;28;20193;-63
2021/12/22 09:07:07;;;;;;;29.40;23.40;;;-2.50;99.90;;;-1.88;79.71;98794.69;5219995;28;20222;-63
2021/12/22 09:09:40;;;;;;;29.00;21.70;;;-2.40;99.90;;;-1.66;80.15;98801.53;5220078;28;20227;-63
2021/12/22 09:12:14;;;;;;;28.33;23.13;;;-2.20;99.90;;;-1.69;80.26;98802.75;5218419;28;20212;-64
2021/12/22 09:14:48;;;;;;;29.33;22.87;;;-2.20;99.90;;;-1.68;81.09;98799.56;5220002;28;20206;-64
2021/12/22 09:17:21;;;;;;;28.13;22.00;;;-2.10;99.90;;;-1.63;81.59;98799.41;5220331;28;20193;-64
2021/12/22 09:19:56;;;;;;;27.77;21.90;;;-2.00;99.90;;;-1.44;82.23;98797.44;5218258;28;20221;-63
2021/12/22 09:22:29;;;;;;;27.43;22.90;;;-1.80;99.90;;;-1.31;81.73;98788.88;5216412;28;20220;-63
2021/12/22 09:25:03;;;;;;;31.20;23.60;;;-1.60;99.90;;;-1.09;81.36;98793.13;5216869;28;20205;-63
2021/12/22 09:27:36;;;;;;;29.70;22.87;;;-1.50;99.90;;;-0.98;80.89;98791.88;5220081;28;20228;-63
2021/12/22 09:30:11;;;;;;;28.13;23.90;;;-1.40;99.90;;;-0.96;80.24;98775.41;5228921;28;20631;-62
2021/12/22 09:32:44;;;;;;;29.13;24.60;;;-1.30;99.90;;;-0.84;79.86;98783.44;5224478;28;20205;-63
2021/12/22 09:35:18;;;;;;;28.47;24.37;;;-1.30;99.90;;;-0.65;79.86;98781.44;5218784;28;20583;-63
2021/12/22 09:37:51;;;;;;;27.83;23.97;;;-1.10;99.90;;;-0.43;80.36;98783.16;5218964;28;20738;-61
2021/12/22 09:40:24;;;;;;;29.03;22.90;;;-0.80;99.90;;;-0.35;79.58;98774.00;5215705;28;20213;-64
2021/12/22 09:42:58;;;;;;;27.17;22.50;;;-0.70;99.90;;;-0.18;77.98;98780.94;5215726;28;20205;-65
2021/12/22 09:45:33;;;;;;;30.73;22.77;;;-0.60;99.90;;;-0.04;75.90;98770.81;5218744;28;20240;-64
2021/12/22 09:48:26;;;;;;;28.67;23.40;;;-0.40;99.90;;;-0.04;77.59;98775.84;5218379;28;20229;-63
2021/12/22 09:53:55;;;;;;;25.80;22.30;;;-0.30;99.90;;;0.08;75.95;98768.78;5217644;28;20196;-64
2021/12/22 09:56:28;;;;;;;27.37;22.17;;;-0.40;99.90;;;0.11;76.35;98759.94;5218761;28;20191;-64
2021/12/22 09:59:02;;;;;;;25.80;22.63;;;-0.50;99.90;;;0.06;75.68;98750.09;5218766;28;20228;-64
2021/12/22 10:01:35;;;;;;;27.17;22.97;;;-0.40;99.90;;;0.30;75.97;98749.44;5223483;28;20651;-64
2021/12/22 10:04:10;;;;;;;30.63;23.67;;;-0.30;99.90;;;0.21;76.19;98746.81;5211894;28;20208;-64
2021/12/22 10:06:44;;;;;;;26.43;22.50;;;-0.30;99.90;;;0.22;76.10;98746.97;5218175;28;20219;-64
2021/12/22 10:09:23;;;;;;;27.67;22.50;;;-0.30;99.90;;;0.35;76.05;98738.28;5218512;28;20226;-63
2021/12/22 10:11:57;;;;;;;25.43;21.13;;;-0.20;99.90;;;0.65;72.96;98735.69;5219684;28;20209;-64
2021/12/22 10:14:54;;;;;;;28.50;22.33;;;0.10;99.90;;;0.55;75.12;98745.50;5219661;28;20203;-63
2021/12/22 10:17:31;;;;;;;28.17;23.00;;;0.00;99.90;;;0.52;75.71;98732.59;5218683;28;20650;-63
2021/12/22 10:20:09;;;;;;;28.40;23.37;;;0.00;99.90;;;0.51;76.12;98733.28;5219913;28;20584;-63
2021/12/22 10:22:47;;;;;;;30.43;25.70;;;0.00;99.90;;;0.70;76.24;98728.66;5220797;28;20200;-64
2021/12/22 10:25:25;;;;;;;30.93;24.77;;;0.10;99.90;;;0.92;74.47;98722.72;5218515;28;20208;-63
2021/12/22 10:28:02;;;;;;;29.47;23.77;;;0.30;99.90;;;0.84;75.25;98718.47;5221961;28;20228;-63
2021/12/22 10:30:38;;;;;;;30.13;23.53;;;0.30;99.90;;;1.08;73.99;98720.19;5222953;28;20258;-64
2021/12/22 10:33:16;;;;;;;30.57;23.07;;;0.50;99.90;;;1.25;72.43;98719.50;5212088;28;20209;-62
2021/12/22 10:35:52;;;;;;;30.17;23.63;;;0.70;99.90;;;1.07;72.91;98720.94;5220949;28;20301;-65
2021/12/22 10:38:29;;;;;;;28.60;23.13;;;0.50;99.90;;;1.02;73.99;98712.88;5218521;28;20228;-64
2021/12/22 10:41:06;;;;;;;27.43;23.17;;;0.50;99.90;;;0.90;74.86;98709.06;5221221;28;20207;-65
2021/12/22 10:43:45;;;;;;;28.83;23.60;;;0.50;99.90;;;1.22;74.20;98701.53;5222223;28;20204;-65
2021/12/22 10:46:26;;;;;;;29.13;23.50;;;0.60;99.90;;;1.04;75.83;98697.97;5220618;28;20197;-64
2021/12/22 10:49:17;;;;;;;27.33;21.53;;;0.60;99.90;;;1.21;75.58;98695.63;5221455;28;20227;-64
2021/12/22 10:51:58;;;;;;;27.10;22.97;;;0.70;99.90;;;1.12;74.92;98699.69;5221022;28;20191;-64